Temple, Maine
Current Conditions -  °F | °C
As of 9:35 PM on Saturday 22 Nov 2014 (Local Time) from KWVL Reporting Station
Broken Clouds Broken Clouds  
Wind Chill: 27°   Ceiling: 11000
Heat Index: 34°   Visibility: 10mi
Dew Point: 10°   Wind: 8mph
Humidity: 38%   Direction: 220°SW
Pressure: 29.89"   Gusts: NA
Location:  44.68°N, 70.23°W
Report Text: KWVL 230235Z 22007KT 10SM BKN110 01/M12 A2989 RMK AO1
Loading
Personal Weather Stations






























Interactive Weather Map New forecast layout! Learn more

10-Day Weather Forecast

Advertisements
Track Severe Weather on mobile